createdAt,value
2019-06-10T00:04:35.174Z,21.3
2019-06-10T00:20:02.356Z,21
2019-06-10T00:35:21.066Z,21
2019-06-10T00:50:38.324Z,21
2019-06-10T01:05:57.027Z,21
2019-06-10T01:21:14.193Z,21.1
2019-06-10T01:36:34.571Z,21
2019-06-10T01:51:53.702Z,20.9
2019-06-10T02:07:13.873Z,20.9
2019-06-10T02:22:31.782Z,20.9
2019-06-10T02:37:49.221Z,21
2019-06-10T02:53:07.917Z,21
2019-06-10T03:08:29.183Z,21
2019-06-10T03:23:45.307Z,21
2019-06-10T03:38:56.624Z,21.1
2019-06-10T03:54:26.172Z,21.2
2019-06-10T04:09:42.490Z,21.2
2019-06-10T04:25:02.793Z,21.3
2019-06-10T04:40:20.888Z,21.3
2019-06-10T04:55:34.960Z,21.3
2019-06-10T05:10:57.333Z,21.7
2019-06-10T05:26:16.582Z,22.1
2019-06-10T05:41:36.099Z,22.3
2019-06-10T05:56:52.161Z,22.4
2019-06-10T06:12:14.723Z,22.5
2019-06-10T06:27:35.464Z,22.8
2019-06-10T06:42:54.052Z,23.3
2019-06-10T06:58:08.476Z,23.8
2019-06-10T07:13:36.987Z,24.3
2019-06-10T07:28:55.146Z,24.9
2019-06-10T07:44:16.070Z,25.5
2019-06-10T07:59:26.604Z,26
2019-06-10T08:14:58.040Z,26.6
2019-06-10T08:30:23.811Z,26.9
2019-06-10T08:45:43.638Z,27.3
2019-06-10T09:01:03.040Z,27.3
2019-06-10T09:16:22.638Z,27.4
2019-06-10T09:31:49.560Z,26.9
2019-06-10T09:47:08.202Z,26.7
2019-06-10T10:02:29.366Z,26.1
2019-06-10T10:17:36.780Z,26
2019-06-10T10:33:12.779Z,26.4
2019-06-10T10:48:34.223Z,27.1
2019-06-10T11:03:58.698Z,27.1
2019-06-10T11:19:17.213Z,27.2
2019-06-10T11:34:27.378Z,27.3
2019-06-10T11:50:03.410Z,27.5
2019-06-10T12:05:24.414Z,27.7
2019-06-10T12:20:47.746Z,27.8
2019-06-10T12:36:12.582Z,28.3
2019-06-10T12:51:22.677Z,29.4
2019-06-10T13:06:57.596Z,29.8
2019-06-10T13:22:24.764Z,29.5
2019-06-10T13:37:48.586Z,29.2
2019-06-10T13:53:13.482Z,29.1
2019-06-10T14:08:16.728Z,28.5
2019-06-10T14:23:52.695Z,28.5
2019-06-10T14:39:22.102Z,28.4
2019-06-10T14:54:43.980Z,28.6
2019-06-10T15:10:07.522Z,28.8
2019-06-10T15:25:13.764Z,28.7
2019-06-10T15:40:46.426Z,28.7
2019-06-10T15:56:26.899Z,28.8
2019-06-10T16:11:57.211Z,29.1
2019-06-10T16:27:04.041Z,29.5
2019-06-10T16:42:06.571Z,29.6
2019-06-10T16:57:42.477Z,29.8
2019-06-10T17:13:16.977Z,29.6
2019-06-10T17:28:42.725Z,29.3
2019-06-10T17:44:03.793Z,28.9
2019-06-10T17:59:26.841Z,28.7
2019-06-10T18:14:37.463Z,28.3
2019-06-10T18:30:14.236Z,28
2019-06-10T18:45:36.744Z,27.6
2019-06-10T19:01:02.921Z,27.2
2019-06-10T19:16:16.954Z,26.9
2019-06-10T19:31:28.269Z,26.5
2019-06-10T19:46:59.512Z,26.1
2019-06-10T20:02:22.453Z,25.7
2019-06-10T20:17:41.630Z,25.6
2019-06-10T20:33:03.280Z,25.2
2019-06-10T20:48:15.649Z,23.2
2019-06-10T21:03:43.797Z,21.6
2019-06-10T21:19:00.228Z,21.2
2019-06-10T21:34:18.912Z,21
2019-06-10T21:49:23.597Z,20.6
2019-06-10T22:04:55.539Z,20.3
2019-06-10T22:20:14.109Z,19.8
2019-06-10T22:35:32.131Z,19.8
2019-06-10T22:50:51.198Z,19.5
2019-06-10T23:05:58.532Z,19.3
2019-06-10T23:21:25.978Z,19.1
2019-06-10T23:36:43.687Z,18.5
2019-06-10T23:52:03.671Z,18.5
